Alekseevka, Kazakhstan
Current Conditions -  °F | °C
As of 11:00 AM on Saturday 22 Nov 2014 (Local Time) from UACC Reporting Station
Light Snow Light Snow  
Wind Chill:   Ceiling: 2000
Heat Index: 19°   Visibility: 4mi
Dew Point: 18°   Wind: 16mph
Humidity: 93%   Direction: 240°WSW
Pressure: 30.3"   Gusts: NA
Location:  52.01°N, 70.94°E
Report Text: UACC 220500Z 24007MPS 6000 -SN OVC020 M07/M08 Q1026 R22/8/0055NOSIG RMK QFE738/0984
Loading
Personal Weather Stations






























Interactive Weather Map New forecast layout! Learn more

10-Day Weather Forecast

Advertisements
Track Severe Weather on mobile